createdAt,value
2022-09-23T00:00:05.376Z,14.98
2022-09-23T00:02:07.847Z,14.25
2022-09-23T00:04:10.021Z,14.52
2022-09-23T00:06:18.231Z,13.57
2022-09-23T00:08:20.511Z,14.30
2022-09-23T00:10:33.805Z,14.02
2022-09-23T00:12:36.520Z,13.88
2022-09-23T00:14:39.424Z,14.07
2022-09-23T00:16:41.778Z,13.05
2022-09-23T00:20:56.099Z,14.85
2022-09-23T00:23:01.552Z,15.95
2022-09-23T00:25:18.798Z,15.18
2022-09-23T00:27:54.636Z,15.25
2022-09-23T00:29:57.315Z,14.68
2022-09-23T00:32:08.376Z,13.15
2022-09-23T00:34:13.555Z,14.38
2022-09-23T00:36:52.659Z,14.18
2022-09-23T00:39:26.236Z,13.93
2022-09-23T00:41:39.852Z,13.68
2022-09-23T00:43:49.168Z,15.77
2022-09-23T00:45:51.536Z,14.38
2022-09-23T00:50:17.715Z,14.50
2022-09-23T00:52:23.848Z,14.82
2022-09-23T00:54:27.907Z,15.32
2022-09-23T00:56:31.994Z,15.48
2022-09-23T00:58:39.386Z,14.80
2022-09-23T01:00:42.820Z,16.38
2022-09-23T01:02:44.936Z,15.65
2022-09-23T01:04:49.703Z,15.50
2022-09-23T01:06:51.896Z,16.40
2022-09-23T01:08:54.070Z,16.15
2022-09-23T01:11:20.843Z,16.42
2022-09-23T01:13:57.965Z,15.50
2022-09-23T01:16:15.084Z,16.02
2022-09-23T01:18:43.646Z,14.82
2022-09-23T01:21:21.526Z,14.25
2022-09-23T01:24:15.771Z,15.90
2022-09-23T01:26:36.041Z,16.48
2022-09-23T01:29:15.299Z,17.75
2022-09-23T01:31:37.560Z,16.90
2022-09-23T01:33:45.476Z,18.17
2022-09-23T01:36:19.284Z,16.80
2022-09-23T01:38:47.043Z,16.58
2022-09-23T01:40:55.028Z,18.77
2022-09-23T01:43:06.209Z,16.50
2022-09-23T01:45:32.177Z,17.27
2022-09-23T01:47:42.750Z,17.35
2022-09-23T01:50:29.627Z,18.38
2022-09-23T01:52:42.010Z,18.63
2022-09-23T01:54:55.647Z,19.60
2022-09-23T01:57:09.975Z,18.05
2022-09-23T01:59:18.542Z,18.42
2022-09-23T02:01:30.198Z,21.10
2022-09-23T02:03:59.883Z,19.48
2022-09-23T02:06:20.363Z,20.48
2022-09-23T02:08:32.057Z,19.73
2022-09-23T02:10:54.115Z,18.70
2022-09-23T02:13:10.113Z,18.83
2022-09-23T02:15:17.832Z,20.38
2022-09-23T02:17:31.552Z,19.48
2022-09-23T02:19:46.360Z,19.45
2022-09-23T02:21:56.133Z,20.55
2022-09-23T02:24:06.416Z,18.17
2022-09-23T02:26:33.882Z,18.25
2022-09-23T02:28:51.832Z,16.77
2022-09-23T02:31:07.827Z,17.45
2022-09-23T02:33:35.174Z,18.02
2022-09-23T02:35:51.801Z,17.67
2022-09-23T02:37:53.827Z,18.45
2022-09-23T02:40:07.866Z,16.77
2022-09-23T02:42:15.597Z,16.92
2022-09-23T02:44:20.461Z,15.15
2022-09-23T02:46:23.481Z,17.38
2022-09-23T02:48:48.468Z,16.75
2022-09-23T02:50:50.803Z,17.40
2022-09-23T02:54:59.009Z,15.32
2022-09-23T02:57:06.872Z,15.48
2022-09-23T02:59:09.979Z,15.88
2022-09-23T03:01:22.868Z,15.60
2022-09-23T03:03:37.220Z,15.45
2022-09-23T03:05:50.615Z,14.90
2022-09-23T03:08:05.130Z,14.75
2022-09-23T03:10:16.694Z,14.40
2022-09-23T03:12:21.637Z,16.98
2022-09-23T03:14:40.417Z,14.80
2022-09-23T03:16:50.962Z,15.50
2022-09-23T03:19:22.179Z,15.05
2022-09-23T03:21:53.221Z,16.30
2022-09-23T03:23:59.830Z,15.68
2022-09-23T03:26:08.669Z,15.07
2022-09-23T03:28:12.090Z,15.63
2022-09-23T03:30:14.515Z,14.70
2022-09-23T03:32:19.867Z,14.32
2022-09-23T03:34:27.518Z,15.30
2022-09-23T03:36:53.988Z,14.38
2022-09-23T03:39:04.746Z,14.80
2022-09-23T03:41:11.024Z,14.40
2022-09-23T03:43:14.316Z,14.90
2022-09-23T03:45:21.174Z,15.55
2022-09-23T03:47:26.361Z,15.20
2022-09-23T03:49:33.554Z,14.85
2022-09-23T03:51:35.893Z,14.32
2022-09-23T03:55:41.773Z,16.60
2022-09-23T03:57:45.296Z,14.27
2022-09-23T03:59:47.436Z,13.15
2022-09-23T04:01:50.400Z,14.40
2022-09-23T04:03:53.847Z,14.10
2022-09-23T04:05:56.091Z,13.40
2022-09-23T04:07:58.254Z,12.90
2022-09-23T04:10:00.503Z,13.27
2022-09-23T04:12:03.854Z,11.25
2022-09-23T04:14:05.987Z,11.85
2022-09-23T04:16:08.175Z,10.55
2022-09-23T04:18:10.461Z,10.68
2022-09-23T04:20:12.984Z,10.30
2022-09-23T04:22:15.108Z,9.45
2022-09-23T04:24:17.588Z,8.32
2022-09-23T04:26:19.686Z,9.88
2022-09-23T04:28:22.745Z,8.85
2022-09-23T04:30:24.918Z,8.35
2022-09-23T04:32:27.089Z,7.93
2022-09-23T04:34:29.240Z,8.13
2022-09-23T04:36:31.506Z,7.72
2022-09-23T04:40:36.323Z,9.38
2022-09-23T04:42:38.676Z,8.25
2022-09-23T04:44:40.845Z,7.97
2022-09-23T04:46:49.738Z,8.00
2022-09-23T04:48:52.189Z,7.82
2022-09-23T04:50:54.282Z,7.60
2022-09-23T04:52:56.539Z,6.82
2022-09-23T04:57:00.970Z,7.60
2022-09-23T05:01:27.160Z,6.82
2022-09-23T05:03:30.299Z,7.47
2022-09-23T05:05:32.368Z,7.57
2022-09-23T05:07:35.579Z,6.78
2022-09-23T05:09:38.206Z,7.05
2022-09-23T05:11:40.527Z,6.05
2022-09-23T05:15:44.535Z,6.10
2022-09-23T05:17:46.741Z,5.97
2022-09-23T05:19:48.873Z,6.07
2022-09-23T05:21:51.622Z,6.55
2022-09-23T05:23:56.840Z,6.25
2022-09-23T05:26:00.713Z,5.68
2022-09-23T05:28:02.942Z,6.07
2022-09-23T05:30:05.531Z,6.05
2022-09-23T05:32:08.121Z,5.65
2022-09-23T05:34:10.148Z,5.15
2022-09-23T05:36:13.456Z,4.88
2022-09-23T05:38:16.981Z,4.57
2022-09-23T05:40:19.187Z,5.22
2022-09-23T05:42:21.309Z,5.13
2022-09-23T05:46:28.387Z,4.28
2022-09-23T05:48:35.294Z,4.78
2022-09-23T05:50:37.407Z,4.53
2022-09-23T05:52:39.587Z,4.10
2022-09-23T05:54:41.853Z,4.30
2022-09-23T05:56:46.857Z,4.32
2022-09-23T05:58:50.694Z,4.90
2022-09-23T06:00:53.289Z,4.90
2022-09-23T06:02:55.566Z,4.35
2022-09-23T06:04:57.999Z,4.40
2022-09-23T06:07:03.356Z,4.22
2022-09-23T06:09:08.376Z,4.72
2022-09-23T06:11:12.179Z,4.90
2022-09-23T06:13:16.147Z,4.85
2022-09-23T06:15:18.480Z,4.78
2022-09-23T06:17:20.722Z,4.15
2022-09-23T06:21:25.272Z,4.10
2022-09-23T06:23:27.658Z,4.35
2022-09-23T06:25:30.525Z,4.50
2022-09-23T06:28:00.274Z,4.07
2022-09-23T06:30:02.688Z,4.05
2022-09-23T06:32:06.088Z,4.07
2022-09-23T06:34:13.684Z,4.28
2022-09-23T06:36:30.822Z,4.25
2022-09-23T06:38:40.408Z,4.03
2022-09-23T06:40:42.644Z,4.13
2022-09-23T06:45:06.111Z,4.70
2022-09-23T06:47:08.420Z,4.70
2022-09-23T06:49:13.128Z,3.92
2022-09-23T06:51:21.822Z,4.88
2022-09-23T06:53:24.161Z,4.00
2022-09-23T06:57:51.288Z,6.63
2022-09-23T06:59:53.402Z,5.05
2022-09-23T07:02:02.138Z,4.55
2022-09-23T07:04:04.494Z,5.38
2022-09-23T07:06:09.485Z,6.40
2022-09-23T07:08:14.950Z,5.35
2022-09-23T07:10:17.255Z,4.57
2022-09-23T07:14:24.192Z,5.78
2022-09-23T07:16:28.960Z,4.53
2022-09-23T07:20:41.752Z,5.50
2022-09-23T07:23:18.028Z,3.83
2022-09-23T07:25:26.311Z,5.43
2022-09-23T07:29:49.599Z,3.63
2022-09-23T07:31:52.209Z,3.42
2022-09-23T07:33:57.598Z,3.70
2022-09-23T07:36:00.191Z,4.30
2022-09-23T07:38:02.578Z,3.83
2022-09-23T07:40:05.412Z,3.72
2022-09-23T07:42:08.030Z,3.63
2022-09-23T07:44:13.928Z,3.85
2022-09-23T07:46:56.312Z,4.05
2022-09-23T07:49:01.368Z,3.60
2022-09-23T07:51:34.718Z,3.95
2022-09-23T07:53:56.875Z,4.47
2022-09-23T07:56:05.681Z,4.10
2022-09-23T07:58:09.054Z,4.60
2022-09-23T08:00:30.453Z,4.23
2022-09-23T08:02:32.566Z,3.90
2022-09-23T08:04:36.177Z,4.32
2022-09-23T08:06:46.504Z,4.30
2022-09-23T08:08:53.332Z,4.88
2022-09-23T08:11:04.659Z,5.40
2022-09-23T08:13:07.008Z,5.25
2022-09-23T08:19:32.120Z,4.72
2022-09-23T08:21:39.311Z,5.60
2022-09-23T08:23:41.699Z,5.32
2022-09-23T08:27:50.756Z,5.43
2022-09-23T08:29:52.920Z,5.18
2022-09-23T08:31:55.849Z,5.90
2022-09-23T08:34:00.134Z,6.82
2022-09-23T08:36:03.747Z,5.40
2022-09-23T08:38:06.527Z,5.00
2022-09-23T08:40:09.716Z,4.82
2022-09-23T08:42:31.953Z,4.82
2022-09-23T08:44:55.321Z,4.80
2022-09-23T08:47:00.420Z,4.80
2022-09-23T08:49:02.834Z,6.43
2022-09-23T08:51:08.499Z,5.65
2022-09-23T08:53:32.895Z,5.88
2022-09-23T08:55:42.205Z,5.50
2022-09-23T08:58:23.504Z,5.47
2022-09-23T09:00:23.852Z,4.82
2022-09-23T09:02:31.508Z,6.25
2022-09-23T09:04:37.929Z,5.75
2022-09-23T09:06:53.567Z,6.07
2022-09-23T09:09:01.044Z,5.30
2022-09-23T09:11:04.034Z,5.32
2022-09-23T09:13:12.471Z,5.93
2022-09-23T09:15:26.864Z,5.93
2022-09-23T09:17:45.991Z,7.15
2022-09-23T09:20:16.943Z,6.57
2022-09-23T09:22:48.539Z,6.25
2022-09-23T09:24:56.608Z,6.35
2022-09-23T09:27:11.959Z,6.63
2022-09-23T09:29:39.317Z,7.35
2022-09-23T09:31:47.899Z,5.90
2022-09-23T09:34:06.442Z,7.32
2022-09-23T09:36:20.999Z,6.95
2022-09-23T09:38:23.623Z,6.75
2022-09-23T09:40:25.826Z,6.53
2022-09-23T09:44:42.359Z,6.15
2022-09-23T09:47:09.159Z,5.68
2022-09-23T09:49:23.446Z,5.53
2022-09-23T09:51:29.815Z,4.85
2022-09-23T09:53:35.936Z,4.38
2022-09-23T09:55:38.696Z,4.40
2022-09-23T09:57:55.167Z,3.13
2022-09-23T09:59:58.963Z,3.42
2022-09-23T10:02:37.047Z,3.75
2022-09-23T10:04:39.825Z,3.63
2022-09-23T10:06:42.079Z,3.70
2022-09-23T10:10:58.766Z,4.10
2022-09-23T10:13:16.214Z,3.88
2022-09-23T10:15:27.517Z,4.45
2022-09-23T10:17:38.835Z,4.40
2022-09-23T10:19:47.132Z,5.28
2022-09-23T10:22:00.144Z,4.20
2022-09-23T10:24:05.817Z,4.13
2022-09-23T10:26:09.060Z,4.50
2022-09-23T10:28:41.306Z,4.50
2022-09-23T10:31:05.483Z,4.45
2022-09-23T10:33:27.968Z,5.97
2022-09-23T10:35:34.528Z,5.13
2022-09-23T10:37:42.241Z,5.40
2022-09-23T10:40:06.516Z,4.70
2022-09-23T10:42:46.883Z,4.93
2022-09-23T10:45:20.053Z,5.38
2022-09-23T10:47:35.099Z,4.05
2022-09-23T10:49:44.017Z,4.72
2022-09-23T10:51:49.140Z,3.78
2022-09-23T10:54:02.802Z,4.50
2022-09-23T10:56:11.129Z,4.75
2022-09-23T10:58:13.157Z,4.25
2022-09-23T11:02:21.399Z,4.75
2022-09-23T11:04:52.933Z,3.72
2022-09-23T11:07:07.448Z,4.70
2022-09-23T11:09:28.266Z,4.10
2022-09-23T11:11:58.757Z,4.05
2022-09-23T11:14:04.812Z,3.38
2022-09-23T11:16:43.276Z,3.47
2022-09-23T11:18:59.870Z,4.10
2022-09-23T11:21:26.662Z,4.25
2022-09-23T11:24:06.362Z,5.47
2022-09-23T11:26:19.823Z,4.68
2022-09-23T11:28:37.168Z,5.05
2022-09-23T11:31:17.465Z,4.25
2022-09-23T11:33:37.894Z,4.72
2022-09-23T11:35:50.500Z,5.15
2022-09-23T11:38:00.881Z,4.28
2022-09-23T11:40:12.455Z,4.97
2022-09-23T11:42:21.632Z,4.07
2022-09-23T11:44:28.699Z,4.35
2022-09-23T11:46:35.993Z,4.75
2022-09-23T11:48:44.858Z,4.90
2022-09-23T11:50:57.509Z,4.80
2022-09-23T11:53:31.768Z,5.55
2022-09-23T11:55:54.655Z,5.00
2022-09-23T11:58:13.002Z,4.53
2022-09-23T12:00:24.355Z,5.40
2022-09-23T12:02:59.595Z,4.72
2022-09-23T12:05:14.131Z,5.07
2022-09-23T12:07:28.795Z,4.90
2022-09-23T12:10:04.108Z,4.68
2022-09-23T12:12:29.499Z,4.75
2022-09-23T12:14:49.978Z,4.38
2022-09-23T12:17:15.052Z,5.18
2022-09-23T12:19:18.999Z,4.63
2022-09-23T12:21:48.649Z,5.88
2022-09-23T12:24:20.455Z,4.60
2022-09-23T12:26:25.668Z,4.35
2022-09-23T12:28:37.867Z,4.95
2022-09-23T12:30:42.350Z,4.65
2022-09-23T12:32:45.412Z,3.95
2022-09-23T12:34:54.679Z,3.65
2022-09-23T12:37:06.339Z,4.10
2022-09-23T12:39:15.568Z,4.78
2022-09-23T12:41:24.160Z,4.10
2022-09-23T12:43:35.708Z,4.28
2022-09-23T12:45:51.022Z,3.83
2022-09-23T12:47:54.048Z,3.92
2022-09-23T12:50:13.316Z,4.35
2022-09-23T12:52:19.697Z,4.65
2022-09-23T12:54:28.321Z,4.10
2022-09-23T12:56:36.627Z,3.90
2022-09-23T13:01:19.910Z,3.65
2022-09-23T13:03:49.526Z,3.83
2022-09-23T13:06:17.302Z,3.88
2022-09-23T13:08:25.046Z,4.35
2022-09-23T13:10:29.780Z,4.57
2022-09-23T13:12:40.489Z,4.50
2022-09-23T13:14:46.185Z,5.60
2022-09-23T13:16:52.362Z,4.43
2022-09-23T13:19:02.817Z,4.18
2022-09-23T13:21:17.983Z,4.30
2022-09-23T13:23:26.627Z,3.47
2022-09-23T13:25:33.571Z,4.35
2022-09-23T13:27:36.497Z,3.97
2022-09-23T13:30:19.365Z,3.88
2022-09-23T13:32:32.024Z,4.43
2022-09-23T13:34:36.264Z,3.90
2022-09-23T13:36:49.504Z,4.40
2022-09-23T13:38:51.940Z,4.07
2022-09-23T13:40:57.154Z,4.80
2022-09-23T13:43:03.345Z,4.50
2022-09-23T13:45:06.892Z,4.07
2022-09-23T13:47:18.198Z,3.60
2022-09-23T13:49:25.240Z,4.40
2022-09-23T13:51:33.275Z,3.95
2022-09-23T13:53:35.485Z,4.22
2022-09-23T13:57:43.341Z,4.75
2022-09-23T13:59:45.563Z,5.55
2022-09-23T14:01:47.837Z,5.70
2022-09-23T14:03:51.571Z,4.07
2022-09-23T14:08:08.189Z,5.00
2022-09-23T14:10:19.198Z,4.45
2022-09-23T14:12:26.384Z,4.32
2022-09-23T14:14:33.782Z,5.68
2022-09-23T14:16:39.734Z,4.95
2022-09-23T14:18:47.273Z,5.75
2022-09-23T14:20:51.856Z,5.38
2022-09-23T14:25:16.815Z,4.93
2022-09-23T14:27:28.606Z,5.05
2022-09-23T14:29:33.872Z,5.30
2022-09-23T14:31:36.105Z,6.18
2022-09-23T14:33:41.820Z,5.00
2022-09-23T14:35:51.579Z,4.72
2022-09-23T14:38:16.334Z,4.82
2022-09-23T14:40:20.681Z,5.82
2022-09-23T14:44:42.413Z,6.97
2022-09-23T14:46:56.975Z,6.20
2022-09-23T14:48:59.055Z,6.43
2022-09-23T14:51:04.025Z,5.95
2022-09-23T14:53:24.230Z,4.80
2022-09-23T14:55:29.051Z,4.93
2022-09-23T14:57:32.087Z,5.78
2022-09-23T14:59:36.705Z,5.03
2022-09-23T15:01:39.383Z,4.82
2022-09-23T15:03:50.096Z,4.85
2022-09-23T15:05:58.445Z,5.00
2022-09-23T15:08:12.118Z,4.28
2022-09-23T15:10:27.145Z,4.63
2022-09-23T15:12:30.498Z,4.68
2022-09-23T15:14:42.310Z,5.10
2022-09-23T15:16:49.582Z,4.65
2022-09-23T15:18:57.852Z,4.35
2022-09-23T15:21:31.676Z,4.65
2022-09-23T15:24:15.813Z,5.20
2022-09-23T15:26:48.323Z,4.85
2022-09-23T15:28:56.308Z,4.88
2022-09-23T15:30:58.622Z,5.07
2022-09-23T15:33:00.675Z,4.65
2022-09-23T15:35:02.917Z,4.57
2022-09-23T15:37:08.266Z,4.97
2022-09-23T15:39:12.381Z,4.78
2022-09-23T15:41:18.070Z,4.78
2022-09-23T15:43:32.723Z,5.20
2022-09-23T15:45:40.375Z,4.35
2022-09-23T15:47:43.201Z,4.93
2022-09-23T15:49:52.066Z,5.32
2022-09-23T15:52:15.491Z,6.00
2022-09-23T15:56:38.202Z,5.32
2022-09-23T15:58:58.673Z,5.65
2022-09-23T16:01:01.851Z,6.25
2022-09-23T16:03:06.767Z,42.17
2022-09-23T16:05:18.613Z,6.95
2022-09-23T16:07:21.282Z,8.60
2022-09-23T16:09:56.560Z,5.88
2022-09-23T16:12:09.481Z,5.23
2022-09-23T16:14:30.012Z,5.60
2022-09-23T16:16:32.963Z,6.57
2022-09-23T16:18:39.411Z,5.93
2022-09-23T16:20:56.566Z,5.90
2022-09-23T16:23:05.323Z,5.75
2022-09-23T16:25:31.509Z,7.07
2022-09-23T16:27:34.211Z,7.38
2022-09-23T16:29:37.011Z,8.23
2022-09-23T16:31:39.566Z,8.70
2022-09-23T16:33:43.283Z,6.35
2022-09-23T16:35:45.813Z,5.95
2022-09-23T16:39:50.413Z,5.88
2022-09-23T16:42:13.608Z,6.38
2022-09-23T16:44:19.505Z,6.45
2022-09-23T16:46:22.772Z,6.22
2022-09-23T16:48:30.957Z,5.85
2022-09-23T16:50:42.803Z,5.60
2022-09-23T16:52:56.916Z,4.28
2022-09-23T16:54:59.265Z,4.90
2022-09-23T16:57:02.069Z,4.88
2022-09-23T17:01:38.358Z,5.28
2022-09-23T17:03:41.046Z,5.32
2022-09-23T17:05:46.582Z,5.32
2022-09-23T17:07:49.125Z,5.22
2022-09-23T17:09:51.402Z,4.55
2022-09-23T17:14:01.089Z,4.97
2022-09-23T17:18:08.165Z,5.10
2022-09-23T17:20:10.319Z,5.93
2022-09-23T17:24:15.115Z,5.10
2022-09-23T17:26:19.219Z,5.50
2022-09-23T17:28:26.134Z,5.05
2022-09-23T17:30:29.983Z,6.25
2022-09-23T17:32:32.093Z,5.78
2022-09-23T17:36:37.039Z,5.10
2022-09-23T17:38:41.771Z,5.30
2022-09-23T17:40:55.251Z,4.28
2022-09-23T17:42:57.361Z,5.93
2022-09-23T17:44:59.663Z,5.78
2022-09-23T17:47:04.994Z,5.78
2022-09-23T17:49:08.565Z,4.70
2022-09-23T17:51:17.023Z,4.78
2022-09-23T17:53:20.431Z,4.93
2022-09-23T17:55:22.647Z,4.95
2022-09-23T17:59:27.003Z,5.27
2022-09-23T18:01:29.350Z,6.05
2022-09-23T18:05:35.747Z,5.03
2022-09-23T18:07:37.811Z,5.10
2022-09-23T18:09:50.337Z,5.85
2022-09-23T18:13:59.701Z,5.45
2022-09-23T18:16:03.023Z,4.95
2022-09-23T18:18:06.223Z,4.80
2022-09-23T18:20:14.565Z,4.88
2022-09-23T18:22:16.977Z,4.63
2022-09-23T18:26:38.620Z,4.95
2022-09-23T18:28:41.013Z,4.53
2022-09-23T18:30:55.095Z,4.35
2022-09-23T18:32:58.455Z,4.40
2022-09-23T18:35:00.646Z,4.47
2022-09-23T18:37:02.871Z,5.40
2022-09-23T18:39:05.846Z,4.45
2022-09-23T18:41:09.482Z,6.28
2022-09-23T18:43:11.723Z,5.15
2022-09-23T18:45:17.075Z,5.22
2022-09-23T18:47:39.093Z,5.90
2022-09-23T18:49:59.842Z,5.57
2022-09-23T18:52:02.359Z,5.38
2022-09-23T18:54:07.194Z,5.45
2022-09-23T18:56:12.133Z,4.88
2022-09-23T18:58:14.518Z,5.15
2022-09-23T19:00:16.857Z,4.93
2022-09-23T19:02:19.143Z,4.95
2022-09-23T19:04:23.498Z,5.55
2022-09-23T19:06:26.105Z,5.72
2022-09-23T19:08:28.676Z,5.95
2022-09-23T19:10:30.896Z,4.95
2022-09-23T19:12:33.131Z,5.07
2022-09-23T19:16:37.955Z,4.53
2022-09-23T19:18:42.082Z,4.55
2022-09-23T19:20:52.111Z,4.57
2022-09-23T19:22:54.722Z,5.35
2022-09-23T19:24:56.863Z,5.30
2022-09-23T19:26:59.123Z,4.85
2022-09-23T19:29:05.606Z,5.38
2022-09-23T19:31:12.625Z,5.80
2022-09-23T19:33:17.918Z,6.10
2022-09-23T19:35:20.144Z,5.43
2022-09-23T19:37:22.672Z,6.20
2022-09-23T19:39:31.350Z,7.40
2022-09-23T19:41:35.633Z,7.93
2022-09-23T19:43:41.018Z,10.35
2022-09-23T19:45:44.591Z,7.47
2022-09-23T19:48:09.862Z,7.40
2022-09-23T19:50:30.448Z,7.78
2022-09-23T19:52:32.517Z,8.10
2022-09-23T19:54:40.260Z,6.75
2022-09-23T19:56:42.410Z,8.85
2022-09-23T20:02:51.737Z,7.00
2022-09-23T20:04:56.916Z,6.80
2022-09-23T20:07:01.532Z,6.95
2022-09-23T20:09:04.062Z,6.97
2022-09-23T20:11:27.583Z,6.53
2022-09-23T20:13:31.542Z,7.75
2022-09-23T20:15:33.709Z,6.97
2022-09-23T20:17:36.112Z,7.43
2022-09-23T20:19:41.483Z,6.93
2022-09-23T20:22:12.614Z,7.72
2022-09-23T20:24:17.068Z,7.68
2022-09-23T20:26:37.539Z,7.38
2022-09-23T20:28:39.595Z,7.47
2022-09-23T20:30:43.977Z,7.18
2022-09-23T20:32:49.406Z,7.18
2022-09-23T20:34:57.250Z,7.63
2022-09-23T20:37:02.029Z,11.15
2022-09-23T20:41:31.518Z,7.13
2022-09-23T20:43:37.841Z,7.57
2022-09-23T20:45:40.072Z,8.18
2022-09-23T20:47:42.121Z,8.63
2022-09-23T20:49:50.138Z,8.10
2022-09-23T20:51:52.198Z,7.63
2022-09-23T20:53:54.369Z,8.70
2022-09-23T20:55:58.390Z,7.93
2022-09-23T20:58:04.001Z,7.25
2022-09-23T21:00:09.444Z,8.48
2022-09-23T21:02:11.805Z,8.13
2022-09-23T21:04:13.927Z,6.72
2022-09-23T21:06:19.089Z,7.05
2022-09-23T21:08:21.600Z,7.38
2022-09-23T21:10:24.441Z,7.93
2022-09-23T21:12:26.470Z,7.30
2022-09-23T21:14:28.641Z,7.82
2022-09-23T21:16:31.061Z,8.27
2022-09-23T21:18:33.174Z,9.32
2022-09-23T21:20:35.309Z,7.28
2022-09-23T21:22:37.487Z,7.07
2022-09-23T21:25:16.136Z,7.07
2022-09-23T21:27:04.138Z,7.13
2022-09-23T21:29:07.010Z,7.15
2022-09-23T21:31:22.879Z,7.30
2022-09-23T21:33:25.364Z,5.78
2022-09-23T21:35:27.447Z,6.93
2022-09-23T21:37:29.619Z,6.93
2022-09-23T21:40:26.267Z,6.40
2022-09-23T21:42:29.432Z,6.50
2022-09-23T21:44:33.630Z,6.65
2022-09-23T21:46:36.532Z,7.00
2022-09-23T21:48:41.483Z,7.25
2022-09-23T21:51:15.839Z,6.97
2022-09-23T21:53:18.576Z,7.18
2022-09-23T21:55:41.496Z,7.20
2022-09-23T21:57:44.328Z,7.25
2022-09-23T21:59:57.038Z,7.38
2022-09-23T22:04:08.531Z,8.02
2022-09-23T22:06:27.946Z,8.57
2022-09-23T22:08:34.923Z,8.52
2022-09-23T22:10:37.749Z,8.88
2022-09-23T22:12:39.928Z,9.10
2022-09-23T22:14:42.966Z,9.20
2022-09-23T22:16:45.523Z,9.30
2022-09-23T22:18:51.818Z,9.48
2022-09-23T22:20:56.406Z,9.10
2022-09-23T22:22:58.528Z,10.50
2022-09-23T22:25:00.719Z,9.52
2022-09-23T22:29:27.088Z,9.60
2022-09-23T22:31:47.857Z,8.55
2022-09-23T22:33:50.683Z,9.93
2022-09-23T22:36:01.465Z,9.43
2022-09-23T22:38:04.794Z,9.45
2022-09-23T22:40:10.698Z,9.45
2022-09-23T22:42:13.448Z,9.70
2022-09-23T22:44:21.600Z,9.55
2022-09-23T22:46:34.819Z,10.15
2022-09-23T22:49:08.406Z,10.88
2022-09-23T22:51:17.216Z,9.88
2022-09-23T22:53:19.356Z,8.27
2022-09-23T22:55:33.715Z,9.18
2022-09-23T22:57:36.785Z,9.77
2022-09-23T23:00:00.485Z,10.60
2022-09-23T23:04:50.555Z,9.50
2022-09-23T23:06:52.617Z,9.02
2022-09-23T23:08:58.756Z,9.50
2022-09-23T23:11:10.931Z,8.77
2022-09-23T23:13:16.533Z,9.60
2022-09-23T23:15:21.294Z,8.90
2022-09-23T23:19:26.107Z,9.17
2022-09-23T23:21:28.504Z,9.20
2022-09-23T23:25:32.562Z,7.63
2022-09-23T23:29:36.985Z,8.32
2022-09-23T23:31:39.437Z,7.95
2022-09-23T23:33:42.368Z,8.43
2022-09-23T23:35:50.774Z,8.63
2022-09-23T23:37:52.854Z,8.02
2022-09-23T23:39:55.051Z,8.45
2022-09-23T23:44:18.252Z,8.20
2022-09-23T23:46:21.463Z,7.82
2022-09-23T23:48:29.678Z,7.50
2022-09-23T23:53:01.707Z,7.00
2022-09-23T23:55:07.237Z,7.55
2022-09-23T23:57:24.787Z,7.03
2022-09-23T23:59:28.476Z,7.13
